Time;durP1;ratioP1;P1;durP2;ratioP2;P2;SDS_P1;SDS_P2;PMS_P1;PMS_P2;Temp;Humidity;BMP_temperature;BMP_pressure;BME280_temperature;BME280_humidity;BME280_pressure;Samples;Min_cycle;Max_cycle;Signal;HPM_P1;HPM_P2
2023/11/29 00:02:03;;;;;;;2.40;1.48;;;-0.20;99.90;;;;;;5034467;28;20032;-72
2023/11/29 00:04:28;;;;;;;3.72;2.05;;;-0.20;99.90;;;;;;5039083;28;20103;-73
2023/11/29 00:06:54;;;;;;;1.80;1.15;;;-0.20;99.90;;;;;;5053261;28;20052;-73
2023/11/29 00:09:20;;;;;;;1.35;1.25;;;-0.20;99.90;;;;;;5053254;28;20048;-72
2023/11/29 00:11:45;;;;;;;1.25;0.82;;;-0.30;99.90;;;;;;5050447;28;20056;-73
2023/11/29 00:14:11;;;;;;;2.15;1.77;;;-0.30;99.90;;;;;;5053287;28;20016;-72
2023/11/29 00:16:37;;;;;;;0.95;0.77;;;-0.30;99.90;;;;;;5033882;28;20119;-72
2023/11/29 00:19:03;;;;;;;1.27;1.17;;;-0.40;99.90;;;;;;5018729;28;20041;-72
2023/11/29 00:21:28;;;;;;;0.88;0.88;;;-0.40;99.90;;;;;;5040392;28;20033;-72
2023/11/29 00:23:54;;;;;;;0.90;0.73;;;-0.30;99.90;;;;;;5052470;28;20036;-72
2023/11/29 00:26:23;;;;;;;3.40;1.77;;;-0.30;99.90;;;;;;5035523;28;20043;-73
2023/11/29 00:28:53;;;;;;;2.67;2.13;;;-0.30;99.90;;;;;;5052699;28;20029;-73
2023/11/29 00:31:19;;;;;;;1.80;1.58;;;-0.40;99.90;;;;;;5035910;28;20418;-73
2023/11/29 00:33:44;;;;;;;1.50;0.77;;;-0.40;99.90;;;;;;5034781;28;20060;-73
2023/11/29 00:36:10;;;;;;;0.40;0.40;;;-0.40;99.90;;;;;;5019358;28;20025;-73
2023/11/29 00:38:36;;;;;;;2.10;1.05;;;-0.50;99.90;;;;;;5034072;28;20037;-73
2023/11/29 00:41:01;;;;;;;0.57;0.57;;;-0.60;99.90;;;;;;5035129;28;20503;-73
2023/11/29 00:43:27;;;;;;;2.08;0.88;;;-0.60;99.90;;;;;;5034712;28;20048;-73
2023/11/29 00:45:53;;;;;;;1.30;1.13;;;-0.60;99.90;;;;;;5025053;28;20416;-73
2023/11/29 00:48:18;;;;;;;1.50;1.08;;;-0.60;99.90;;;;;;5014291;28;20034;-73
2023/11/29 00:50:44;;;;;;;2.13;1.40;;;-0.70;99.90;;;;;;5031636;28;20025;-73
2023/11/29 00:53:10;;;;;;;1.30;1.23;;;-0.70;99.90;;;;;;5034274;28;20037;-73
2023/11/29 00:55:36;;;;;;;0.88;0.88;;;-0.70;99.90;;;;;;5031956;28;20037;-73
2023/11/29 00:58:02;;;;;;;3.80;1.75;;;-0.70;99.90;;;;;;5048492;28;20734;-73
2023/11/29 01:00:29;;;;;;;0.82;0.82;;;-0.70;99.90;;;;;;5048378;28;20041;-73
2023/11/29 01:02:56;;;;;;;4.07;2.67;;;-0.70;99.90;;;;;;5028233;28;20037;-72
2023/11/29 01:05:21;;;;;;;8.25;2.22;;;-0.70;99.90;;;;;;5031820;28;20031;-73
2023/11/29 01:07:47;;;;;;;2.08;1.63;;;-0.70;99.90;;;;;;5026165;28;20117;-73
2023/11/29 01:10:13;;;;;;;1.42;1.33;;;-0.70;99.90;;;;;;5052222;28;20448;-73
2023/11/29 01:12:38;;;;;;;2.33;2.03;;;-0.70;99.90;;;;;;5033993;28;20060;-73
2023/11/29 01:15:06;;;;;;;2.83;2.38;;;-0.70;99.90;;;;;;5052533;28;20477;-73
2023/11/29 01:17:31;;;;;;;1.70;0.90;;;-0.70;99.90;;;;;;5050855;28;20048;-73
2023/11/29 01:19:57;;;;;;;1.63;0.80;;;-0.80;99.90;;;;;;5040480;28;20029;-73
2023/11/29 01:22:23;;;;;;;3.03;1.63;;;-0.80;99.90;;;;;;5033656;28;20124;-73
2023/11/29 01:24:48;;;;;;;1.95;1.17;;;-0.70;99.90;;;;;;5031362;28;20060;-73
2023/11/29 01:27:14;;;;;;;0.98;0.73;;;-0.80;99.90;;;;;;5017644;28;20081;-72
2023/11/29 01:29:40;;;;;;;1.50;1.40;;;-0.70;99.90;;;;;;5030996;28;20022;-73
2023/11/29 01:32:06;;;;;;;0.60;0.60;;;-0.80;99.90;;;;;;5041678;28;20562;-73
2023/11/29 01:34:31;;;;;;;1.25;1.17;;;-0.80;99.90;;;;;;5034596;28;20036;-73
2023/11/29 01:36:57;;;;;;;1.17;0.98;;;-0.80;99.90;;;;;;5017391;28;20397;-73
2023/11/29 01:39:23;;;;;;;0.63;0.57;;;-0.70;99.90;;;;;;5033853;28;20036;-72
2023/11/29 01:41:49;;;;;;;1.15;1.05;;;-0.80;99.90;;;;;;5051180;28;20040;-73
2023/11/29 01:44:15;;;;;;;4.80;2.45;;;-0.70;99.90;;;;;;5034318;28;20029;-73
2023/11/29 01:46:41;;;;;;;0.50;0.40;;;-0.80;99.90;;;;;;5016226;28;20030;-72
2023/11/29 01:49:08;;;;;;;0.90;0.90;;;-0.70;99.90;;;;;;5033720;28;20078;-72
2023/11/29 01:51:34;;;;;;;0.88;0.88;;;-0.70;99.90;;;;;;5024572;28;20369;-72
2023/11/29 01:54:03;;;;;;;1.02;0.93;;;-0.80;99.90;;;;;;5032956;28;20048;-73
2023/11/29 01:56:28;;;;;;;0.43;0.43;;;-0.80;99.90;;;;;;5032507;28;20021;-73
2023/11/29 01:58:55;;;;;;;0.50;0.50;;;-0.80;99.90;;;;;;5013276;28;20055;-73
2023/11/29 02:01:21;;;;;;;1.15;1.05;;;-0.80;99.90;;;;;;5007318;28;20037;-72
2023/11/29 02:03:47;;;;;;;0.50;0.50;;;-0.80;99.90;;;;;;5029996;28;20382;-72
2023/11/29 02:06:12;;;;;;;1.42;1.33;;;-0.90;99.90;;;;;;5033601;28;20033;-73
2023/11/29 02:08:38;;;;;;;1.50;1.15;;;-0.90;99.90;;;;;;5027541;28;20056;-73
2023/11/29 02:11:04;;;;;;;0.57;0.52;;;-1.00;99.90;;;;;;5038645;28;20029;-72
2023/11/29 02:13:30;;;;;;;3.50;2.35;;;-1.00;99.90;;;;;;5049904;28;20040;-72
2023/11/29 02:15:56;;;;;;;2.05;1.40;;;-0.90;99.90;;;;;;5034099;28;20108;-72
2023/11/29 02:18:22;;;;;;;1.05;0.75;;;-0.90;99.90;;;;;;5049647;28;20078;-72
2023/11/29 02:20:47;;;;;;;2.88;1.05;;;-1.00;99.90;;;;;;5051015;28;20033;-72
2023/11/29 02:23:28;;;;;;;2.53;2.30;;;-1.00;99.90;;;;;;5034950;28;20029;-72
2023/11/29 02:25:54;;;;;;;1.17;1.13;;;-1.10;99.90;;;;;;5037160;28;20083;-72
2023/11/29 02:28:20;;;;;;;1.85;1.30;;;-1.20;99.90;;;;;;5049691;28;20112;-72
2023/11/29 02:30:46;;;;;;;2.50;1.48;;;-1.30;99.90;;;;;;5034299;28;20103;-72
2023/11/29 02:33:11;;;;;;;1.30;1.20;;;-1.30;99.90;;;;;;5052168;28;20109;-72
2023/11/29 02:35:37;;;;;;;4.20;3.45;;;-1.40;99.90;;;;;;5055043;28;20033;-72
2023/11/29 02:38:03;;;;;;;0.88;0.88;;;-1.40;99.90;;;;;;5027164;28;20087;-72
2023/11/29 02:40:29;;;;;;;2.10;1.45;;;-1.40;99.90;;;;;;5056922;28;20024;-72
2023/11/29 02:42:54;;;;;;;3.60;2.35;;;-1.40;99.90;;;;;;5055498;28;20132;-73
2023/11/29 02:45:20;;;;;;;3.92;2.17;;;-1.40;99.90;;;;;;5054734;28;20033;-73
2023/11/29 02:47:46;;;;;;;3.53;1.30;;;-1.40;99.90;;;;;;5036478;28;20033;-73
2023/11/29 02:50:12;;;;;;;1.58;1.48;;;-1.30;99.90;;;;;;5055045;28;20035;-73
2023/11/29 02:52:38;;;;;;;2.45;1.60;;;-1.10;99.90;;;;;;5018168;28;20033;-72
2023/11/29 02:55:05;;;;;;;0.77;0.77;;;-1.10;99.90;;;;;;5019735;28;20021;-73
2023/11/29 02:57:31;;;;;;;1.25;1.17;;;-1.10;99.90;;;;;;5028024;28;20104;-72
2023/11/29 02:59:56;;;;;;;1.05;0.60;;;-1.00;99.90;;;;;;5052301;28;20031;-72
2023/11/29 03:02:22;;;;;;;2.05;1.10;;;-1.00;99.90;;;;;;5032368;28;20040;-72
2023/11/29 03:04:49;;;;;;;3.22;1.75;;;-1.00;99.90;;;;;;5031078;28;20500;-73
2023/11/29 03:07:14;;;;;;;0.93;0.93;;;-1.00;99.90;;;;;;5051843;28;20120;-73
2023/11/29 03:09:40;;;;;;;0.60;0.60;;;-1.00;99.90;;;;;;5028907;28;20475;-73
2023/11/29 03:12:07;;;;;;;1.42;1.08;;;-1.00;99.90;;;;;;5051184;28;20032;-72
2023/11/29 03:14:33;;;;;;;2.75;2.33;;;-1.00;99.90;;;;;;5039923;28;20116;-73
2023/11/29 03:16:59;;;;;;;1.25;0.98;;;-1.10;99.90;;;;;;5036522;28;20096;-72
2023/11/29 03:19:24;;;;;;;0.77;0.77;;;-1.10;99.90;;;;;;5016491;28;20033;-72
2023/11/29 03:21:50;;;;;;;3.92;3.17;;;-1.20;99.90;;;;;;5033032;28;20089;-73
2023/11/29 03:24:16;;;;;;;2.58;1.55;;;-1.20;99.90;;;;;;5033503;28;20021;-73
2023/11/29 03:26:43;;;;;;;3.53;2.15;;;-1.30;99.90;;;;;;5031408;28;20045;-73
2023/11/29 03:29:08;;;;;;;2.42;1.95;;;-1.20;99.90;;;;;;5019157;28;20048;-73
2023/11/29 03:31:34;;;;;;;2.10;1.40;;;-1.20;99.90;;;;;;5038974;28;20146;-73
2023/11/29 03:34:00;;;;;;;6.18;2.22;;;-1.20;99.90;;;;;;5034832;28;20083;-73
2023/11/29 03:36:25;;;;;;;0.75;0.75;;;-1.20;99.90;;;;;;5032610;28;20099;-73
2023/11/29 03:38:51;;;;;;;4.38;2.15;;;-1.10;99.90;;;;;;5050033;28;20485;-72
2023/11/29 03:41:17;;;;;;;1.50;1.40;;;-1.10;99.90;;;;;;5054220;28;20028;-72
2023/11/29 03:43:43;;;;;;;0.93;0.93;;;-1.10;99.90;;;;;;5053251;28;20099;-73
2023/11/29 03:46:08;;;;;;;1.20;1.10;;;-1.10;99.90;;;;;;5035726;28;20028;-73
2023/11/29 03:48:34;;;;;;;7.72;2.15;;;-1.10;99.90;;;;;;5046026;28;20413;-72
2023/11/29 03:51:00;;;;;;;2.10;1.90;;;-1.10;99.90;;;;;;5050944;28;20044;-73
2023/11/29 03:53:26;;;;;;;3.67;2.03;;;-1.10;99.90;;;;;;5029414;28;20104;-72
2023/11/29 03:55:53;;;;;;;1.55;0.80;;;-1.10;99.90;;;;;;5031170;28;20112;-72
2023/11/29 03:58:18;;;;;;;0.93;0.63;;;-1.10;99.90;;;;;;5040623;28;20060;-71
2023/11/29 04:00:44;;;;;;;1.75;1.00;;;-1.10;99.90;;;;;;5050193;28;20065;-73
2023/11/29 04:03:10;;;;;;;0.68;0.68;;;-1.10;99.90;;;;;;5031912;28;20029;-73
2023/11/29 04:05:35;;;;;;;2.40;1.67;;;-1.10;99.90;;;;;;5026554;28;20136;-73
2023/11/29 04:08:02;;;;;;;2.53;2.22;;;-1.10;99.90;;;;;;5022522;28;20034;-73
2023/11/29 04:10:29;;;;;;;1.45;1.35;;;-1.00;99.90;;;;;;5031722;28;20072;-73
2023/11/29 04:12:55;;;;;;;1.55;1.13;;;-1.00;99.90;;;;;;5015438;28;20029;-73
2023/11/29 04:15:21;;;;;;;0.98;0.95;;;-1.00;99.90;;;;;;5030009;28;20038;-73
2023/11/29 04:17:46;;;;;;;2.22;1.60;;;-0.90;99.90;;;;;;5013776;28;20095;-73
2023/11/29 04:20:12;;;;;;;1.38;1.30;;;-0.90;99.90;;;;;;4998270;28;20084;-73
2023/11/29 04:22:38;;;;;;;5.80;1.33;;;-0.90;99.90;;;;;;4991853;28;20109;-73
2023/11/29 04:25:07;;;;;;;2.42;2.25;;;-0.80;99.90;;;;;;4997312;28;20077;-73
2023/11/29 04:27:33;;;;;;;1.98;1.85;;;-0.80;99.90;;;;;;5014879;28;20037;-71
2023/11/29 04:29:58;;;;;;;1.02;1.00;;;-0.80;99.90;;;;;;5032409;28;20111;-72
2023/11/29 04:32:24;;;;;;;2.15;1.60;;;-0.80;99.90;;;;;;5014536;28;20041;-72
2023/11/29 04:34:50;;;;;;;2.53;2.33;;;-0.80;99.90;;;;;;5030422;28;20076;-72
2023/11/29 04:37:15;;;;;;;2.65;1.48;;;-0.80;99.90;;;;;;5041626;28;20033;-73
2023/11/29 04:39:42;;;;;;;6.25;1.38;;;-0.80;99.90;;;;;;5023745;28;20033;-72
2023/11/29 04:42:07;;;;;;;0.43;0.43;;;-0.90;99.90;;;;;;5034117;28;20029;-73
2023/11/29 04:44:35;;;;;;;1.42;1.33;;;-0.80;99.90;;;;;;5031212;28;20440;-73
2023/11/29 04:47:01;;;;;;;1.98;0.90;;;-0.80;99.90;;;;;;5031322;28;20366;-73
2023/11/29 04:49:27;;;;;;;3.00;1.20;;;-0.80;99.90;;;;;;5052094;28;20055;-73
2023/11/29 04:51:53;;;;;;;2.53;1.23;;;-0.80;99.90;;;;;;5051517;28;20044;-73
2023/11/29 04:54:19;;;;;;;3.40;1.90;;;-0.70;99.90;;;;;;5031297;28;20034;-73
2023/11/29 04:56:45;;;;;;;2.55;1.48;;;-0.70;99.90;;;;;;5022104;28;20029;-73
2023/11/29 04:59:10;;;;;;;2.90;1.95;;;-0.60;99.90;;;;;;5030501;28;20369;-73
2023/11/29 05:01:36;;;;;;;1.48;1.20;;;-0.60;99.90;;;;;;5023137;28;20063;-73
2023/11/29 05:04:02;;;;;;;1.98;1.88;;;-0.50;99.90;;;;;;5033181;28;20477;-73
2023/11/29 05:06:28;;;;;;;2.17;1.63;;;-0.50;99.90;;;;;;5033313;28;20025;-73
2023/11/29 05:08:54;;;;;;;2.70;1.75;;;-0.50;99.90;;;;;;5015222;28;20529;-73
2023/11/29 05:11:20;;;;;;;1.92;1.77;;;-0.50;99.90;;;;;;5034081;28;20116;-73
2023/11/29 05:13:46;;;;;;;1.75;1.65;;;-0.40;99.90;;;;;;5050866;28;20040;-74
2023/11/29 05:16:12;;;;;;;3.20;2.30;;;-0.40;99.90;;;;;;5036391;28;20025;-73
2023/11/29 05:18:37;;;;;;;1.92;1.42;;;-0.40;99.90;;;;;;5014357;28;20047;-73
2023/11/29 05:21:04;;;;;;;2.42;1.98;;;-0.40;99.90;;;;;;5034011;28;20060;-73
2023/11/29 05:23:30;;;;;;;1.48;1.27;;;-0.30;99.90;;;;;;5008633;28;20029;-72
2023/11/29 05:25:56;;;;;;;1.30;1.10;;;-0.30;99.90;;;;;;5036555;28;20056;-73
2023/11/29 05:28:25;;;;;;;12.25;2.20;;;-0.30;99.90;;;;;;5037673;28;20031;-72
2023/11/29 05:30:54;;;;;;;5.18;3.35;;;-0.30;99.90;;;;;;5035068;28;20028;-72
2023/11/29 05:33:23;;;;;;;1.35;1.25;;;-0.30;99.90;;;;;;5051578;28;20071;-73
2023/11/29 05:35:49;;;;;;;5.10;2.28;;;-0.20;99.90;;;;;;5024353;28;20021;-73
2023/11/29 05:38:15;;;;;;;2.80;2.40;;;-0.20;99.90;;;;;;5048818;28;20089;-72
2023/11/29 05:40:41;;;;;;;2.92;2.72;;;-0.20;99.90;;;;;;5050533;28;20501;-72
2023/11/29 05:43:07;;;;;;;4.47;2.72;;;-0.20;99.90;;;;;;5026754;28;20116;-71
2023/11/29 05:45:33;;;;;;;0.90;0.85;;;-0.10;99.90;;;;;;5025673;28;20025;-73
2023/11/29 05:47:58;;;;;;;7.32;3.42;;;0.10;99.90;;;;;;5029094;28;20040;-73
2023/11/29 05:50:24;;;;;;;2.38;2.17;;;0.00;99.90;;;;;;5045558;28;20037;-73
2023/11/29 05:52:50;;;;;;;4.63;2.88;;;-0.10;99.90;;;;;;5039904;28;20029;-74
2023/11/29 05:55:16;;;;;;;1.77;1.67;;;-0.10;99.90;;;;;;5050425;28;20059;-74
2023/11/29 05:57:45;;;;;;;5.18;1.75;;;-0.20;99.90;;;;;;5049218;28;20124;-74
2023/11/29 06:00:11;;;;;;;2.55;2.35;;;-0.20;99.90;;;;;;5034157;28;20357;-74
2023/11/29 06:02:38;;;;;;;2.03;1.80;;;-0.30;99.90;;;;;;5031367;28;20068;-74
2023/11/29 06:05:05;;;;;;;2.20;1.77;;;-0.40;99.90;;;;;;5032107;28;20497;-73
2023/11/29 06:07:37;;;;;;;0.82;0.82;;;-0.40;99.90;;;;;;5049988;28;20041;-74
2023/11/29 06:10:05;;;;;;;3.20;2.90;;;-0.40;99.90;;;;;;5033933;28;20033;-74
2023/11/29 06:12:33;;;;;;;3.45;2.90;;;-0.40;99.90;;;;;;5024629;28;20028;-75
2023/11/29 06:15:04;;;;;;;0.43;0.43;;;-0.40;99.90;;;;;;5034647;28;20028;-74
2023/11/29 06:17:35;;;;;;;3.58;1.70;;;-0.30;99.90;;;;;;5038880;28;20503;-74
2023/11/29 06:20:04;;;;;;;1.70;1.40;;;-0.30;99.90;;;;;;5033469;28;20416;-74
2023/11/29 06:22:32;;;;;;;2.70;1.30;;;-0.20;99.90;;;;;;5050554;28;20062;-74
2023/11/29 06:25:01;;;;;;;2.35;2.15;;;-0.10;99.90;;;;;;5039311;28;20460;-74
2023/11/29 06:27:30;;;;;;;1.77;1.65;;;-0.10;99.90;;;;;;5056971;28;20036;-74
2023/11/29 06:29:57;;;;;;;4.47;1.63;;;0.10;99.90;;;;;;5055351;28;20025;-74
2023/11/29 06:32:22;;;;;;;1.90;1.80;;;0.10;99.90;;;;;;5040988;28;20021;-74
2023/11/29 06:34:55;;;;;;;3.63;1.40;;;0.30;99.90;;;;;;5031784;28;20021;-74
2023/11/29 06:37:21;;;;;;;4.38;2.70;;;0.40;99.90;;;;;;5059881;28;20021;-74
2023/11/29 06:39:48;;;;;;;2.53;1.58;;;0.60;99.90;;;;;;5032294;28;20078;-73
2023/11/29 06:42:14;;;;;;;3.65;2.17;;;0.70;99.90;;;;;;5044465;28;20524;-73
2023/11/29 06:44:40;;;;;;;6.20;2.38;;;0.70;99.90;;;;;;5063655;28;20033;-72
2023/11/29 06:47:07;;;;;;;4.43;2.83;;;0.80;99.90;;;;;;5044874;28;20108;-73
2023/11/29 06:49:33;;;;;;;1.85;0.93;;;0.90;99.90;;;;;;5049651;28;20078;-72
2023/11/29 06:51:59;;;;;;;1.88;1.77;;;0.90;99.90;;;;;;5049227;28;20486;-72
2023/11/29 06:54:25;;;;;;;0.35;0.35;;;0.90;99.90;;;;;;5050131;28;20083;-73
2023/11/29 06:56:51;;;;;;;1.10;1.00;;;1.00;99.90;;;;;;5049304;28;20032;-72
2023/11/29 06:59:16;;;;;;;2.20;1.42;;;1.10;99.90;;;;;;5058449;28;20032;-71
2023/11/29 07:01:42;;;;;;;7.10;3.33;;;1.10;99.90;;;;;;5049233;28;20174;-72
2023/11/29 07:04:08;;;;;;;2.58;1.92;;;1.10;99.90;;;;;;5050532;28;20071;-72
2023/11/29 07:06:34;;;;;;;4.05;2.42;;;1.20;99.90;;;;;;5049329;28;20125;-73
2023/11/29 07:09:00;;;;;;;2.13;1.92;;;1.20;99.90;;;;;;5049963;28;20115;-72
2023/11/29 07:11:26;;;;;;;3.65;2.33;;;1.10;99.90;;;;;;5051175;28;20206;-72
2023/11/29 07:13:51;;;;;;;4.45;2.30;;;1.10;99.90;;;;;;5043039;28;20071;-72
2023/11/29 07:16:17;;;;;;;1.98;1.15;;;1.10;99.90;;;;;;5061455;28;20025;-72
2023/11/29 07:18:43;;;;;;;2.13;1.38;;;1.10;99.90;;;;;;5053833;28;20424;-72
2023/11/29 07:21:09;;;;;;;3.25;2.47;;;1.10;99.90;;;;;;5035036;28;20028;-72
2023/11/29 07:23:34;;;;;;;2.60;1.70;;;1.10;99.90;;;;;;5053766;28;20078;-72
2023/11/29 07:26:00;;;;;;;1.58;1.48;;;1.10;99.90;;;;;;5053766;28;20079;-72
2023/11/29 07:28:27;;;;;;;4.40;2.67;;;1.20;99.90;;;;;;5047514;28;20083;-71
2023/11/29 07:30:53;;;;;;;5.72;2.40;;;1.20;99.90;;;;;;5062152;28;20465;-72
2023/11/29 07:33:18;;;;;;;2.90;2.58;;;1.20;99.90;;;;;;5048310;28;20146;-73
2023/11/29 07:35:44;;;;;;;1.40;1.30;;;1.30;99.90;;;;;;5036261;28;20462;-73
2023/11/29 07:38:10;;;;;;;3.05;1.85;;;1.30;99.90;;;;;;5042778;28;20029;-74
2023/11/29 07:40:37;;;;;;;1.67;1.42;;;1.30;99.90;;;;;;5036201;28;20480;-76
2023/11/29 07:43:03;;;;;;;1.45;0.82;;;1.30;99.90;;;;;;5056320;28;20033;-73
2023/11/29 07:45:29;;;;;;;1.67;1.58;;;1.40;99.90;;;;;;5041336;28;20025;-73
2023/11/29 07:47:54;;;;;;;1.65;1.00;;;1.40;99.90;;;;;;5036918;28;20139;-73
2023/11/29 07:50:20;;;;;;;0.20;0.20;;;1.40;99.90;;;;;;5053151;28;20214;-74
2023/11/29 07:52:46;;;;;;;3.40;3.10;;;1.30;99.90;;;;;;5045207;28;20605;-74
2023/11/29 07:55:12;;;;;;;3.22;2.35;;;1.30;99.90;;;;;;5037885;28;20485;-74
2023/11/29 07:57:37;;;;;;;5.75;2.45;;;1.30;99.90;;;;;;5015683;28;20033;-74
2023/11/29 08:00:12;;;;;;;2.28;1.90;;;1.30;99.90;;;;;;5016439;28;20122;-73
2023/11/29 08:02:39;;;;;;;2.08;1.77;;;1.40;99.90;;;;;;5037496;28;20033;-73
2023/11/29 08:05:05;;;;;;;3.60;3.30;;;1.30;99.90;;;;;;5051506;28;20427;-74
2023/11/29 08:07:32;;;;;;;2.58;1.90;;;1.40;99.90;;;;;;5058386;28;20028;-75
2023/11/29 08:10:01;;;;;;;2.00;1.42;;;1.40;99.90;;;;;;5053400;28;20021;-72
2023/11/29 08:12:28;;;;;;;3.25;2.08;;;1.40;99.90;;;;;;5031520;28;20052;-74
2023/11/29 08:14:55;;;;;;;2.35;2.15;;;1.40;99.90;;;;;;5013629;28;20420;-74
2023/11/29 08:17:21;;;;;;;1.88;1.55;;;1.50;99.90;;;;;;5051428;28;20024;-74
2023/11/29 08:19:46;;;;;;;3.13;1.48;;;1.60;99.90;;;;;;5018096;28;20037;-75
2023/11/29 08:22:14;;;;;;;1.73;0.98;;;1.60;99.90;;;;;;5052002;28;20029;-74
2023/11/29 08:24:39;;;;;;;1.35;1.20;;;1.60;99.90;;;;;;5051935;28;20051;-75
2023/11/29 08:27:05;;;;;;;2.78;2.17;;;1.60;99.90;;;;;;5035966;28;20513;-76
2023/11/29 08:29:31;;;;;;;3.67;2.28;;;1.60;99.90;;;;;;5039970;28;20425;-75
2023/11/29 08:31:57;;;;;;;6.32;3.22;;;1.70;99.90;;;;;;5054083;28;20021;-74
2023/11/29 08:34:23;;;;;;;1.17;0.82;;;1.70;99.90;;;;;;5046003;28;20056;-75
2023/11/29 08:36:48;;;;;;;3.88;1.80;;;1.80;99.90;;;;;;5060918;28;20063;-74
2023/11/29 08:39:14;;;;;;;2.78;1.65;;;1.80;99.90;;;;;;5043002;28;20025;-75
2023/11/29 08:41:43;;;;;;;1.35;1.23;;;1.80;99.90;;;;;;5056277;28;20032;-75
2023/11/29 08:44:12;;;;;;;1.98;1.23;;;1.80;99.90;;;;;;5051376;28;20033;-75
2023/11/29 08:46:37;;;;;;;1.70;1.60;;;1.70;99.90;;;;;;5052438;28;20140;-75
2023/11/29 08:49:03;;;;;;;3.22;1.58;;;1.70;99.90;;;;;;5037608;28;20557;-74
2023/11/29 08:51:29;;;;;;;4.32;1.55;;;1.70;99.90;;;;;;5051626;28;20036;-75
2023/11/29 08:53:55;;;;;;;2.30;1.85;;;1.80;99.90;;;;;;5050622;28;20387;-75
2023/11/29 08:56:21;;;;;;;2.40;1.58;;;1.70;99.90;;;;;;5046199;28;20048;-75
2023/11/29 08:58:48;;;;;;;1.88;1.65;;;1.70;99.90;;;;;;5055106;28;20071;-76
2023/11/29 09:01:20;;;;;;;2.00;1.80;;;1.50;99.90;;;;;;5034486;28;20056;-75
2023/11/29 09:03:47;;;;;;;1.33;1.23;;;1.50;99.90;;;;;;5031047;28;20099;-74
2023/11/29 09:06:13;;;;;;;2.42;1.40;;;1.50;99.90;;;;;;5029101;28;20032;-75
2023/11/29 09:08:39;;;;;;;1.48;1.35;;;1.60;99.90;;;;;;5046241;28;20029;-75
2023/11/29 09:11:06;;;;;;;1.15;1.05;;;1.60;99.90;;;;;;5032578;28;20033;-74
2023/11/29 09:13:33;;;;;;;2.47;2.15;;;1.50;99.90;;;;;;5030379;28;20382;-74
2023/11/29 09:15:59;;;;;;;3.45;2.08;;;1.50;99.90;;;;;;5013590;28;20106;-74
2023/11/29 09:18:25;;;;;;;1.05;1.02;;;1.50;99.90;;;;;;5022099;28;20040;-74
2023/11/29 09:20:51;;;;;;;1.30;1.15;;;1.50;99.90;;;;;;5016468;28;20162;-74
2023/11/29 09:23:16;;;;;;;2.10;1.42;;;1.60;99.90;;;;;;5014296;28;20104;-74
2023/11/29 09:25:42;;;;;;;1.55;1.17;;;1.70;99.90;;;;;;5031405;28;20041;-75
2023/11/29 09:28:08;;;;;;;1.83;1.35;;;1.80;99.90;;;;;;5033113;28;20025;-74
2023/11/29 09:30:34;;;;;;;2.22;1.77;;;1.80;99.90;;;;;;5030052;28;20026;-75
2023/11/29 09:33:00;;;;;;;3.65;1.17;;;1.80;99.90;;;;;;5031435;28;20151;-74
2023/11/29 09:35:26;;;;;;;1.05;0.95;;;1.80;99.90;;;;;;5037802;28;20054;-74
2023/11/29 09:37:51;;;;;;;1.38;1.27;;;1.70;99.90;;;;;;5033255;28;20028;-74
2023/11/29 09:40:17;;;;;;;6.45;1.58;;;1.80;99.90;;;;;;5050796;28;20536;-75
2023/11/29 09:42:44;;;;;;;5.18;2.70;;;1.70;99.90;;;;;;5058201;28;20066;-75
2023/11/29 09:45:11;;;;;;;1.40;0.77;;;1.70;99.90;;;;;;5045776;28;20064;-74
2023/11/29 09:47:38;;;;;;;2.53;1.10;;;1.70;99.90;;;;;;5039134;28;20033;-75
2023/11/29 09:50:06;;;;;;;1.65;1.50;;;1.80;99.90;;;;;;5032548;28;20032;-74
2023/11/29 09:52:32;;;;;;;1.73;1.30;;;1.70;99.90;;;;;;5030216;28;20032;-75
2023/11/29 09:54:58;;;;;;;7.60;1.77;;;1.70;99.90;;;;;;5032348;28;20374;-73
2023/11/29 09:57:24;;;;;;;1.90;1.42;;;1.90;99.90;;;;;;5051360;28;20024;-74
2023/11/29 09:59:50;;;;;;;2.30;1.85;;;1.90;99.90;;;;;;5049818;28;20048;-74
2023/11/29 10:02:23;;;;;;;3.70;2.70;;;1.90;99.90;;;;;;5064589;28;20028;-73
2023/11/29 10:04:49;;;;;;;1.92;0.80;;;1.90;99.90;;;;;;5048127;28;20200;-74
2023/11/29 10:07:14;;;;;;;1.83;1.42;;;1.90;99.90;;;;;;5035938;28;20028;-73
2023/11/29 10:09:40;;;;;;;0.95;0.93;;;2.00;99.90;;;;;;5041114;28;20120;-73
2023/11/29 10:12:08;;;;;;;1.70;1.42;;;1.90;99.90;;;;;;5040232;28;20093;-73
2023/11/29 10:14:42;;;;;;;1.63;1.30;;;1.90;99.90;;;;;;5013993;28;20481;-73
2023/11/29 10:17:13;;;;;;;2.33;1.25;;;2.00;99.90;;;;;;5032739;28;20032;-73
2023/11/29 10:19:40;;;;;;;4.05;1.63;;;2.00;99.90;;;;;;5052501;28;20025;-73
2023/11/29 10:22:06;;;;;;;0.98;0.68;;;2.00;99.90;;;;;;5024817;28;20048;-74
2023/11/29 10:24:32;;;;;;;5.13;1.42;;;2.00;99.90;;;;;;5032605;28;20045;-73
2023/11/29 10:26:58;;;;;;;1.50;1.20;;;2.10;99.90;;;;;;5032886;28;20029;-74
2023/11/29 10:29:24;;;;;;;1.92;1.67;;;2.00;99.90;;;;;;5048928;28;20022;-74
2023/11/29 10:31:52;;;;;;;1.02;0.93;;;2.10;99.90;;;;;;5047312;28;20384;-73
2023/11/29 10:34:19;;;;;;;1.05;0.80;;;2.10;99.90;;;;;;5037898;28;20454;-73
2023/11/29 10:36:46;;;;;;;6.18;0.65;;;2.00;99.90;;;;;;5029539;28;20040;-74
2023/11/29 10:39:18;;;;;;;4.30;2.17;;;2.00;99.90;;;;;;5053332;28;20020;-74
2023/11/29 10:41:51;;;;;;;6.40;2.13;;;2.00;99.90;;;;;;5047154;28;20021;-73
2023/11/29 10:44:22;;;;;;;2.40;1.95;;;2.00;99.90;;;;;;5033033;28;20051;-73
2023/11/29 10:46:52;;;;;;;0.22;0.22;;;2.00;99.90;;;;;;5033843;28;20029;-74
2023/11/29 10:49:37;;;;;;;6.32;1.45;;;2.10;99.90;;;;;;5035766;28;20029;-74
2023/11/29 10:52:04;;;;;;;1.67;1.27;;;2.10;99.90;;;;;;5037525;28;20048;-75
2023/11/29 10:54:30;;;;;;;1.70;0.98;;;2.20;99.90;;;;;;5041647;28;20044;-74
2023/11/29 10:56:56;;;;;;;2.55;1.73;;;2.20;99.90;;;;;;5055379;28;20029;-74
2023/11/29 10:59:28;;;;;;;0.75;0.65;;;2.10;99.90;;;;;;5045665;28;20043;-73
2023/11/29 11:01:58;;;;;;;3.22;1.08;;;2.20;99.90;;;;;;5017611;28;20045;-74
2023/11/29 11:04:35;;;;;;;1.13;1.05;;;2.30;99.90;;;;;;5034815;28;20025;-74
2023/11/29 11:07:04;;;;;;;1.40;1.30;;;2.30;99.90;;;;;;5038466;28;20044;-73
2023/11/29 11:09:39;;;;;;;1.65;1.55;;;2.40;99.90;;;;;;5040047;28;20048;-73
2023/11/29 11:12:09;;;;;;;5.45;1.70;;;2.50;99.90;;;;;;5035461;28;20040;-73
2023/11/29 11:14:50;;;;;;;2.40;0.90;;;2.50;99.90;;;;;;5018499;28;20030;-73
2023/11/29 11:17:18;;;;;;;;;;;2.40;99.90;;;;;;5037697;28;20025;-73
2023/11/29 11:19:46;;;;;;;4.15;1.48;;;2.40;99.90;;;;;;5019999;28;19913;-73
2023/11/29 11:22:15;;;;;;;1.50;1.35;;;2.50;99.90;;;;;;5052885;28;20029;-73
2023/11/29 11:24:54;;;;;;;1.77;1.13;;;2.60;99.90;;;;;;5035300;28;20388;-73
2023/11/29 11:27:30;;;;;;;3.70;1.15;;;2.60;99.90;;;;;;5046785;28;20119;-73
2023/11/29 11:29:56;;;;;;;1.38;0.93;;;2.70;99.90;;;;;;5035711;28;20033;-73
2023/11/29 11:32:37;;;;;;;2.58;2.00;;;2.70;99.90;;;;;;5032706;28;20381;-73
2023/11/29 11:35:21;;;;;;;1.48;1.35;;;2.80;99.90;;;;;;5046686;28;20035;-73
2023/11/29 11:38:11;;;;;;;3.67;1.88;;;2.80;99.90;;;;;;5053930;28;20087;-73
2023/11/29 11:40:40;;;;;;;1.25;0.60;;;2.90;99.90;;;;;;5038821;28;20029;-72
2023/11/29 11:43:08;;;;;;;1.48;1.38;;;3.10;99.90;;;;;;5047920;28;20084;-71
2023/11/29 11:45:36;;;;;;;1.00;0.90;;;3.50;99.90;;;;;;5041311;28;20029;-72
2023/11/29 11:48:04;;;;;;;3.72;1.98;;;3.60;99.90;;;;;;5043865;28;20024;-73
2023/11/29 11:50:30;;;;;;;1.75;1.27;;;3.70;99.90;;;;;;5031136;28;20098;-73
2023/11/29 11:52:59;;;;;;;3.20;2.17;;;3.80;99.90;;;;;;5035684;28;20029;-72
2023/11/29 11:55:29;;;;;;;1.45;1.23;;;3.60;99.90;;;;;;5035117;28;20032;-74
2023/11/29 11:57:59;;;;;;;1.07;1.03;;;3.70;99.90;;;;;;5035375;28;20044;-72
2023/11/29 12:00:27;;;;;;;3.67;1.73;;;3.90;99.90;;;;;;5037900;28;20302;-72
2023/11/29 12:02:54;;;;;;;1.55;0.88;;;3.70;99.90;;;;;;5043878;28;20029;-74
2023/11/29 12:05:21;;;;;;;0.82;0.82;;;3.50;99.90;;;;;;5048148;28;20025;-72
2023/11/29 12:07:48;;;;;;;2.50;1.75;;;3.40;99.90;;;;;;5053596;28;20029;-74
2023/11/29 12:10:15;;;;;;;4.63;2.22;;;3.60;99.90;;;;;;5037208;28;20017;-72
2023/11/29 12:12:42;;;;;;;1.40;1.30;;;4.10;99.90;;;;;;5031800;28;20057;-73
2023/11/29 12:15:15;;;;;;;1.65;0.85;;;4.70;99.90;;;;;;5033384;28;20532;-73
2023/11/29 12:17:42;;;;;;;2.28;2.05;;;4.20;99.90;;;;;;5035010;28;20652;-73
2023/11/29 12:20:09;;;;;;;3.28;2.40;;;4.00;99.90;;;;;;5034565;28;20036;-73
2023/11/29 12:22:42;;;;;;;2.17;1.33;;;3.70;99.90;;;;;;5053071;28;20021;-73
2023/11/29 12:25:19;;;;;;;0.60;0.60;;;3.60;99.90;;;;;;5035354;28;20033;-73
2023/11/29 12:27:47;;;;;;;1.02;1.02;;;3.30;99.90;;;;;;5035067;28;20099;-73
2023/11/29 12:30:13;;;;;;;0.98;0.75;;;3.40;99.90;;;;;;5034206;28;20029;-73
2023/11/29 12:32:40;;;;;;;8.30;1.88;;;3.40;99.90;;;;;;5053008;28;20029;-73
2023/11/29 12:35:08;;;;;;;2.28;1.25;;;3.50;99.90;;;;;;5033740;28;20025;-73
2023/11/29 12:37:34;;;;;;;0.70;0.70;;;3.70;99.90;;;;;;5015073;28;20026;-73
2023/11/29 12:40:00;;;;;;;4.18;1.30;;;3.80;99.90;;;;;;5031773;28;20024;-73
2023/11/29 12:42:25;;;;;;;2.90;1.45;;;4.00;99.90;;;;;;5053359;28;20032;-73
2023/11/29 12:44:51;;;;;;;2.05;0.93;;;4.00;99.90;;;;;;5034025;28;20033;-73
2023/11/29 12:47:28;;;;;;;5.63;0.70;;;3.80;99.90;;;;;;5027195;28;20037;-73
2023/11/29 12:49:54;;;;;;;4.03;1.60;;;3.90;99.90;;;;;;5035723;28;20051;-74
2023/11/29 12:52:19;;;;;;;1.50;1.25;;;4.30;99.90;;;;;;5037882;28;20478;-73